Time;durP1;ratioP1;P1;durP2;ratioP2;P2;SDS_P1;SDS_P2;PMS_P1;PMS_P2;Temp;Humidity;BMP_temperature;BMP_pressure;BME280_temperature;BME280_humidity;BME280_pressure;Samples;Min_cycle;Max_cycle;Signal;HPM_P1;HPM_P2
2021/10/30 00:01:46;;;;;;;6.88;6.18;;;0.70;99.90;;;;;;4695375;30;20065;-87
2021/10/30 00:04:25;;;;;;;8.40;7.57;;;0.50;99.90;;;;;;4717574;30;20048;-85
2021/10/30 00:06:55;;;;;;;8.30;6.85;;;0.40;99.90;;;;;;4730003;30;20060;-86
2021/10/30 00:09:26;;;;;;;11.52;6.38;;;0.40;99.90;;;;;;4715189;30;20044;-87
2021/10/30 00:12:02;;;;;;;8.00;6.88;;;0.40;99.90;;;;;;4729452;30;20049;-86
2021/10/30 00:14:35;;;;;;;8.45;6.35;;;0.30;99.90;;;;;;4720449;30;20496;-86
2021/10/30 00:17:05;;;;;;;7.55;6.68;;;0.30;99.90;;;;;;4696281;30;20061;-85
2021/10/30 00:19:43;;;;;;;6.47;5.78;;;0.20;99.90;;;;;;4698421;30;20065;-86
2021/10/30 00:22:18;;;;;;;7.25;6.55;;;0.20;99.90;;;;;;4714082;30;20060;-86
2021/10/30 00:24:47;;;;;;;7.70;5.87;;;0.20;99.90;;;;;;4712143;30;20057;-86
2021/10/30 00:27:21;;;;;;;6.83;5.43;;;0.10;99.90;;;;;;4698465;30;20060;-86
2021/10/30 00:29:55;;;;;;;7.10;6.38;;;0.00;99.90;;;;;;4703994;30;20060;-85
2021/10/30 00:32:28;;;;;;;6.63;5.53;;;0.00;99.90;;;;;;4713706;30;20083;-85
2021/10/30 00:34:59;;;;;;;6.80;5.75;;;0.00;99.90;;;;;;4697312;30;20516;-85
2021/10/30 00:37:34;;;;;;;7.43;6.50;;;0.00;99.90;;;;;;4712112;30;20061;-86
2021/10/30 00:40:11;;;;;;;6.63;5.93;;;-0.10;99.90;;;;;;4698053;30;20068;-85
2021/10/30 00:42:43;;;;;;;5.40;4.88;;;-0.10;99.90;;;;;;4713579;30;20064;-85
2021/10/30 00:45:13;;;;;;;;;;;-0.10;99.90;;;;;;4696299;30;20053;-86
2021/10/30 00:47:46;;;;;;;5.88;5.38;;;-0.20;99.90;;;;;;4712477;30;19930;-86
2021/10/30 00:50:21;;;;;;;6.72;6.03;;;-0.20;99.90;;;;;;4682686;30;20041;-86
2021/10/30 00:52:54;;;;;;;6.07;5.47;;;-0.20;99.90;;;;;;4713306;30;20056;-86
2021/10/30 00:55:26;;;;;;;6.35;5.70;;;-0.20;99.90;;;;;;4697729;30;20078;-86
2021/10/30 00:57:59;;;;;;;7.63;6.50;;;-0.30;99.90;;;;;;4711308;30;20060;-85
2021/10/30 01:00:30;;;;;;;5.00;4.57;;;-0.30;99.90;;;;;;4711446;30;20293;-85
2021/10/30 01:03:01;;;;;;;5.35;4.93;;;-0.30;99.90;;;;;;4712049;30;20056;-86
2021/10/30 01:05:30;;;;;;;6.32;5.78;;;-0.40;99.90;;;;;;4725904;30;20045;-86
2021/10/30 01:08:02;;;;;;;4.70;4.30;;;-0.30;99.90;;;;;;4730000;30;20057;-85
2021/10/30 01:10:32;;;;;;;5.43;5.03;;;-0.30;99.90;;;;;;4729906;30;20438;-86
2021/10/30 01:13:14;;;;;;;5.57;5.13;;;-0.30;99.90;;;;;;4734267;30;20056;-86
2021/10/30 01:15:56;;;;;;;8.10;5.95;;;-0.30;99.90;;;;;;4731827;30;20056;-85
2021/10/30 01:18:39;;;;;;;6.40;5.93;;;-0.20;99.90;;;;;;4732515;30;20052;-86
2021/10/30 01:21:12;;;;;;;4.72;4.32;;;-0.30;99.90;;;;;;4732136;30;20049;-84
2021/10/30 01:23:49;;;;;;;6.63;5.95;;;-0.30;99.90;;;;;;4734452;30;20052;-86
2021/10/30 01:26:23;;;;;;;5.88;5.43;;;-0.40;99.90;;;;;;4719500;30;20520;-86
2021/10/30 01:28:53;;;;;;;6.22;5.28;;;-0.40;99.90;;;;;;4716191;30;20072;-86
2021/10/30 01:31:27;;;;;;;5.28;4.78;;;-0.60;99.90;;;;;;4714604;30;20138;-86
2021/10/30 01:34:00;;;;;;;6.07;5.47;;;-0.50;99.90;;;;;;4700442;30;20060;-86
2021/10/30 01:36:37;;;;;;;6.60;6.00;;;-0.40;99.90;;;;;;4716982;30;20053;-86
2021/10/30 01:39:16;;;;;;;6.30;5.22;;;-0.50;99.90;;;;;;4711355;30;20497;-86
2021/10/30 01:41:53;;;;;;;8.13;7.18;;;-0.50;99.90;;;;;;4707856;30;20057;-86
2021/10/30 01:45:00;;;;;;;6.95;6.40;;;-0.50;99.90;;;;;;4715034;30;20057;-83
2021/10/30 01:47:51;;;;;;;5.55;5.00;;;-0.50;99.90;;;;;;4715000;30;20065;-85
2021/10/30 01:50:47;;;;;;;6.03;5.53;;;-0.50;99.90;;;;;;4716214;30;20076;-86
2021/10/30 01:54:00;;;;;;;6.78;6.18;;;-0.60;99.90;;;;;;4702736;30;20058;-87
2021/10/30 02:01:24;;;;;;;5.72;5.25;;;-0.70;99.90;;;;;;4572542;31;21694;-86
2021/10/30 02:10:51;;;;;;;;;;;;;;;;;;;;;
2021/10/30 04:43:05;;;;;;;23.35;5.22;;;0.20;99.90;;;;;;4606988;30;20066;-82
2021/10/30 04:45:34;;;;;;;48.13;9.60;;;0.20;99.90;;;;;;4606878;31;20052;-81
2021/10/30 05:55:14;;;;;;;24.73;8.45;;;0.60;99.90;;;;;;4590449;30;20063;-86
2021/10/30 05:59:16;;;;;;;38.85;7.28;;;0.60;99.90;;;;;;4587936;31;20067;-84
2021/10/30 06:08:00;;;;;;;60.55;7.32;;;0.70;99.90;;;;;;4540714;31;20520;-84
2021/10/30 06:17:07;;;;;;;48.17;7.07;;;0.60;99.90;;;;;;4577478;31;20053;-85
2021/10/30 06:20:00;;;;;;;67.97;8.32;;;0.50;99.90;;;;;;4574591;31;20067;-77
2021/10/30 06:23:16;;;;;;;;;;;;;;;;;;;;;
2021/10/30 06:27:35;;;;;;;20.88;6.65;;;0.60;99.90;;;;;;4598966;30;20435;-85
2021/10/30 06:30:49;;;;;;;17.85;4.57;;;0.60;99.90;;;;;;4633696;30;20074;-84
2021/10/30 06:33:27;;;;;;;23.40;5.78;;;0.60;99.90;;;;;;4651330;30;20434;-81
2021/10/30 06:35:55;;;;;;;58.38;9.73;;;0.60;99.90;;;;;;4698598;30;20365;-80
2021/10/30 06:38:22;;;;;;;24.85;6.80;;;0.60;99.90;;;;;;4696969;30;20049;-81
2021/10/30 06:41:49;;;;;;;17.98;6.88;;;0.50;99.90;;;;;;4698311;30;20057;-86
2021/10/30 06:51:11;;;;;;;;;;;;;;;;;;;;;
2021/10/30 06:55:37;;;;;;;;;;;;;;;;;;;;;
2021/10/30 06:59:53;;;;;;;8.70;5.72;;;0.50;99.90;;;;;;4592478;30;20055;-86
2021/10/30 07:03:30;;;;;;;61.65;7.70;;;0.60;99.90;;;;;;4590832;31;20163;-86
2021/10/30 07:08:02;;;;;;;117.22;9.13;;;0.80;99.90;;;;;;4548037;31;20065;-86
2021/10/30 07:12:02;;;;;;;34.03;6.55;;;0.80;99.90;;;;;;4547227;31;20566;-85
2021/10/30 07:16:24;;;;;;;;;;;;;;;;;;;;;
2021/10/30 07:19:36;;;;;;;27.45;5.88;;;0.90;99.90;;;;;;4656620;30;20078;-85
2021/10/30 07:28:34;;;;;;;34.90;6.75;;;0.90;99.90;;;;;;4604859;30;20059;-86
2021/10/30 07:31:54;;;;;;;37.58;7.38;;;1.10;99.90;;;;;;4657503;30;20065;-81
2021/10/30 07:34:21;;;;;;;52.03;8.95;;;1.00;99.90;;;;;;4660688;30;20058;-80
2021/10/30 07:36:49;;;;;;;41.55;8.55;;;1.10;99.90;;;;;;4660494;30;20058;-80
2021/10/30 07:39:17;;;;;;;58.35;9.13;;;1.20;99.90;;;;;;4660773;30;20066;-81
2021/10/30 07:41:45;;;;;;;32.00;8.18;;;1.30;99.90;;;;;;4659706;30;20073;-81
2021/10/30 07:44:12;;;;;;;76.80;10.40;;;1.40;99.90;;;;;;4645524;30;20066;-82
2021/10/30 07:46:40;;;;;;;63.38;11.45;;;1.40;99.90;;;;;;4658841;30;20551;-81
2021/10/30 07:49:08;;;;;;;61.10;8.35;;;1.60;99.90;;;;;;4660282;30;20454;-81
2021/10/30 07:51:35;;;;;;;46.15;10.68;;;1.50;99.90;;;;;;4646055;30;20486;-81
2021/10/30 07:54:03;;;;;;;75.10;9.73;;;1.60;99.90;;;;;;4671195;30;20065;-81
2021/10/30 07:56:31;;;;;;;48.55;9.98;;;1.60;99.90;;;;;;4695796;30;20057;-81
2021/10/30 07:58:58;;;;;;;118.47;16.30;;;1.70;99.90;;;;;;4695912;30;20073;-81
2021/10/30 08:01:26;;;;;;;68.60;14.55;;;1.70;99.90;;;;;;4695061;30;20058;-81
2021/10/30 08:03:54;;;;;;;52.83;10.95;;;1.80;99.90;;;;;;4699122;30;20054;-81
2021/10/30 08:06:21;;;;;;;40.13;9.77;;;1.90;99.90;;;;;;4730503;30;20060;-81
2021/10/30 08:08:49;;;;;;;58.30;10.98;;;1.70;99.90;;;;;;4731920;30;20059;-81
2021/10/30 08:11:18;;;;;;;40.15;8.90;;;1.70;99.90;;;;;;4730035;30;20086;-81
2021/10/30 08:13:45;;;;;;;60.30;9.02;;;1.90;99.90;;;;;;4727009;30;20053;-83
2021/10/30 08:16:13;;;;;;;82.13;15.63;;;1.90;99.90;;;;;;4711603;30;20060;-81
2021/10/30 08:18:41;;;;;;;38.30;8.57;;;2.00;99.90;;;;;;4714189;30;20061;-81
2021/10/30 08:21:09;;;;;;;35.15;10.32;;;2.10;99.90;;;;;;4713197;30;20037;-82
2021/10/30 08:23:36;;;;;;;34.85;10.88;;;2.10;99.90;;;;;;4714206;30;20060;-80
2021/10/30 08:26:05;;;;;;;66.50;9.77;;;2.10;99.90;;;;;;4713601;30;20061;-81
2021/10/30 08:28:33;;;;;;;21.05;7.47;;;2.20;99.90;;;;;;4713211;30;20053;-81
2021/10/30 08:31:01;;;;;;;44.40;11.48;;;2.20;99.90;;;;;;4710351;30;20049;-81
2021/10/30 08:33:28;;;;;;;22.20;8.18;;;2.10;99.90;;;;;;4698311;30;20420;-83
2021/10/30 08:35:56;;;;;;;66.75;14.00;;;2.10;99.90;;;;;;4713098;30;20069;-82
2021/10/30 08:38:24;;;;;;;29.35;12.25;;;2.20;99.90;;;;;;4713817;30;20057;-82
2021/10/30 08:40:53;;;;;;;22.77;8.50;;;2.30;99.90;;;;;;4713091;30;20068;-82
2021/10/30 08:43:22;;;;;;;34.17;8.27;;;2.50;99.90;;;;;;4712776;30;20473;-82
2021/10/30 08:45:51;;;;;;;81.22;13.30;;;2.40;99.90;;;;;;4696104;30;20421;-82
2021/10/30 08:48:21;;;;;;;41.03;9.98;;;2.40;99.90;;;;;;4714587;30;20053;-82
2021/10/30 08:50:53;;;;;;;32.38;8.82;;;2.60;99.90;;;;;;4712973;30;20500;-82
2021/10/30 08:53:23;;;;;;;30.25;8.98;;;2.60;99.90;;;;;;4712463;30;20091;-82
2021/10/30 08:55:52;;;;;;;29.40;8.45;;;2.70;99.90;;;;;;4712506;30;20049;-82
2021/10/30 08:58:21;;;;;;;20.73;8.05;;;2.80;99.90;;;;;;4711914;30;20057;-83
2021/10/30 09:00:51;;;;;;;30.77;9.05;;;2.80;99.90;;;;;;4709994;30;20045;-81
2021/10/30 09:03:21;;;;;;;47.15;13.18;;;3.00;99.90;;;;;;4698189;30;20060;-81
2021/10/30 09:05:52;;;;;;;22.00;9.30;;;3.20;99.90;;;;;;4727029;30;20075;-81
2021/10/30 09:08:23;;;;;;;13.10;7.70;;;3.40;99.90;;;;;;4731385;30;20453;-81
2021/10/30 09:10:53;;;;;;;15.77;9.57;;;3.20;99.90;;;;;;4730273;30;20510;-81
2021/10/30 09:13:22;;;;;;;12.40;9.23;;;3.50;99.90;;;;;;4729809;30;20437;-82
2021/10/30 09:15:52;;;;;;;18.25;8.32;;;3.50;99.90;;;;;;4728022;30;20057;-85
2021/10/30 09:18:38;;;;;;;21.95;7.95;;;3.50;99.90;;;;;;4714969;30;20056;-82
2021/10/30 09:21:15;;;;;;;11.00;9.45;;;3.60;99.90;;;;;;4730299;30;20048;-82
2021/10/30 09:24:11;;;;;;;14.98;8.50;;;3.60;99.90;;;;;;4715357;30;20072;-82
2021/10/30 09:26:39;;;;;;;8.10;7.22;;;4.00;99.90;;;;;;4710612;30;20501;-82
2021/10/30 09:29:09;;;;;;;10.10;7.95;;;4.10;99.90;;;;;;4708494;30;20050;-83
2021/10/30 09:31:37;;;;;;;8.50;7.30;;;4.20;99.90;;;;;;4694862;30;20057;-83
2021/10/30 09:34:07;;;;;;;11.00;7.75;;;3.80;99.90;;;;;;4712581;30;20405;-81
2021/10/30 09:36:42;;;;;;;11.73;10.50;;;3.50;99.90;;;;;;4699504;30;20417;-82
2021/10/30 09:39:17;;;;;;;9.60;6.95;;;3.60;99.90;;;;;;4698925;30;20061;-81
2021/10/30 09:41:49;;;;;;;9.85;8.43;;;3.50;99.90;;;;;;4711670;30;20429;-83
2021/10/30 09:44:27;;;;;;;13.00;9.82;;;3.90;99.90;;;;;;4697691;30;20053;-82
2021/10/30 09:46:58;;;;;;;9.07;8.20;;;4.00;99.90;;;;;;4710772;30;20065;-83
2021/10/30 09:49:31;;;;;;;9.77;8.05;;;4.10;99.90;;;;;;4699360;30;20057;-83
2021/10/30 09:52:05;;;;;;;10.98;8.07;;;4.20;99.90;;;;;;4698973;30;20069;-83
2021/10/30 09:54:36;;;;;;;9.40;8.50;;;4.30;99.90;;;;;;4711754;30;20072;-82
2021/10/30 09:57:07;;;;;;;10.32;9.35;;;4.60;99.90;;;;;;4697465;30;20499;-83
2021/10/30 09:59:42;;;;;;;14.07;7.43;;;4.70;99.90;;;;;;4698908;30;20057;-83
2021/10/30 10:02:10;;;;;;;9.98;7.95;;;4.90;99.90;;;;;;4696140;30;20057;-83
2021/10/30 10:04:43;;;;;;;9.50;8.60;;;5.10;99.90;;;;;;4711999;30;20053;-82
2021/10/30 10:07:11;;;;;;;11.68;8.77;;;5.20;99.90;;;;;;4717763;30;20072;-82
2021/10/30 10:09:38;;;;;;;11.90;10.68;;;5.20;99.90;;;;;;4732451;30;20052;-83
2021/10/30 10:12:09;;;;;;;11.45;6.90;;;5.20;99.90;;;;;;4733220;30;20048;-81
2021/10/30 10:14:40;;;;;;;7.95;7.25;;;5.60;99.90;;;;;;4723590;30;20049;-81
2021/10/30 10:17:08;;;;;;;10.83;7.53;;;5.90;99.90;;;;;;4714830;30;20064;-82
2021/10/30 10:19:37;;;;;;;9.23;7.15;;;6.00;99.90;;;;;;4716393;30;20049;-82
2021/10/30 10:22:05;;;;;;;12.05;7.47;;;6.20;99.90;;;;;;4715740;30;20061;-83
2021/10/30 10:24:35;;;;;;;8.45;7.65;;;6.50;99.90;;;;;;4714632;30;20060;-83
2021/10/30 10:27:05;;;;;;;9.60;7.15;;;6.70;99.90;;;;;;4714508;30;20067;-83
2021/10/30 10:29:42;;;;;;;7.57;6.88;;;6.80;99.90;;;;;;4715555;30;20070;-83
2021/10/30 10:32:23;;;;;;;8.70;7.30;;;7.10;99.90;;;;;;4714628;30;20481;-83
2021/10/30 10:35:02;;;;;;;6.13;5.05;;;7.40;99.90;;;;;;4715437;30;20428;-82
2021/10/30 10:37:29;;;;;;;7.43;6.25;;;7.50;99.90;;;;;;4715935;30;20448;-83
2021/10/30 10:39:59;;;;;;;8.90;6.10;;;7.60;99.90;;;;;;4699592;30;20057;-83
2021/10/30 10:42:36;;;;;;;7.15;5.78;;;7.80;99.90;;;;;;4713846;30;20053;-84
2021/10/30 10:45:08;;;;;;;9.07;7.50;;;8.00;99.90;;;;;;4712995;30;20057;-83
2021/10/30 10:47:38;;;;;;;7.90;6.68;;;8.00;99.90;;;;;;4715551;30;20068;-83
2021/10/30 10:50:14;;;;;;;7.53;6.93;;;8.10;99.90;;;;;;4713693;30;20060;-82
2021/10/30 10:52:43;;;;;;;5.90;5.20;;;8.30;99.90;;;;;;4716316;30;20057;-82
2021/10/30 10:55:11;;;;;;;7.68;5.35;;;8.40;99.90;;;;;;4714703;30;20106;-83
2021/10/30 10:57:47;;;;;;;7.90;5.80;;;8.80;99.90;;;;;;4714448;30;20060;-82
2021/10/30 11:00:17;;;;;;;6.90;5.68;;;8.90;99.90;;;;;;4712165;30;20071;-83
2021/10/30 11:02:48;;;;;;;7.50;5.60;;;9.10;99.90;;;;;;4699601;30;20390;-83
2021/10/30 11:05:20;;;;;;;6.53;5.73;;;9.20;99.90;;;;;;4724902;30;20052;-81
2021/10/30 11:08:08;;;;;;;4.80;4.30;;;9.30;99.90;;;;;;4733451;30;20076;-82
2021/10/30 11:10:42;;;;;;;7.32;6.07;;;9.50;99.90;;;;;;4731189;30;20527;-82
2021/10/30 11:13:14;;;;;;;6.00;5.13;;;9.50;99.90;;;;;;4731361;30;20048;-82
2021/10/30 11:15:43;;;;;;;8.05;6.20;;;9.60;99.90;;;;;;4731446;30;20056;-81
2021/10/30 11:18:31;;;;;;;8.52;6.10;;;9.80;99.90;;;;;;4732816;30;20045;-81
2021/10/30 11:21:18;;;;;;;6.38;5.47;;;10.00;99.90;;;;;;4730330;30;20057;-82
2021/10/30 11:23:49;;;;;;;8.27;6.15;;;10.20;99.90;;;;;;4716869;30;20061;-82
2021/10/30 11:26:21;;;;;;;6.85;6.20;;;10.20;99.90;;;;;;4718788;30;20060;-81
2021/10/30 11:28:49;;;;;;;7.68;5.78;;;10.30;99.90;;;;;;4714779;30;20061;-81
2021/10/30 11:31:23;;;;;;;6.80;5.82;;;10.40;99.90;;;;;;4712470;30;20049;-82
2021/10/30 11:34:02;;;;;;;6.32;5.75;;;10.60;99.90;;;;;;4714906;30;20064;-82
2021/10/30 11:36:36;;;;;;;8.07;5.43;;;10.70;99.90;;;;;;4713934;30;20634;-83
2021/10/30 11:39:08;;;;;;;7.05;6.20;;;10.90;99.90;;;;;;4714587;30;20061;-83
2021/10/30 11:41:37;;;;;;;6.72;6.13;;;10.80;99.90;;;;;;4713648;30;20056;-83
2021/10/30 11:44:10;;;;;;;8.52;6.00;;;10.70;99.90;;;;;;4713357;30;20064;-83
2021/10/30 11:46:44;;;;;;;6.57;5.57;;;10.50;99.90;;;;;;4711527;30;20064;-83
2021/10/30 11:49:29;;;;;;;8.25;7.00;;;10.50;99.90;;;;;;4714569;30;20049;-83
2021/10/30 11:52:05;;;;;;;6.63;5.55;;;10.70;99.90;;;;;;4714071;30;20489;-82
2021/10/30 11:54:35;;;;;;;8.40;6.22;;;10.70;99.90;;;;;;4713698;30;20493;-83
2021/10/30 11:57:04;;;;;;;6.43;5.90;;;11.00;99.90;;;;;;4714199;30;20475;-82
2021/10/30 11:59:32;;;;;;;7.47;5.60;;;11.40;99.90;;;;;;4714253;30;20057;-82
2021/10/30 12:02:00;;;;;;;8.43;7.57;;;11.70;99.90;;;;;;4711418;30;20053;-82
2021/10/30 12:04:33;;;;;;;7.25;6.65;;;11.80;99.90;;;;;;4718257;30;20515;-81
2021/10/30 12:07:14;;;;;;;7.60;6.47;;;11.70;99.90;;;;;;4731576;30;20096;-83
2021/10/30 12:09:47;;;;;;;10.30;6.63;;;11.70;99.90;;;;;;4730312;30;20052;-82
2021/10/30 12:12:18;;;;;;;7.05;6.35;;;11.80;99.90;;;;;;4730132;30;20056;-82
2021/10/30 12:14:51;;;;;;;7.55;5.97;;;11.80;99.90;;;;;;4690048;30;20045;-81
2021/10/30 12:17:31;;;;;;;6.68;5.57;;;11.70;99.90;;;;;;4711568;30;20056;-83
2021/10/30 12:20:10;;;;;;;8.88;6.22;;;11.80;99.90;;;;;;4712648;30;20060;-82
2021/10/30 12:22:40;;;;;;;7.63;6.25;;;12.10;99.90;;;;;;4712751;30;20060;-83
2021/10/30 12:25:09;;;;;;;6.70;5.80;;;12.20;99.90;;;;;;4713668;30;20060;-83
2021/10/30 12:27:58;;;;;;;6.90;5.45;;;12.30;99.90;;;;;;4714054;30;20056;-80
2021/10/30 12:30:32;;;;;;;6.97;5.47;;;12.60;99.90;;;;;;4711475;30;20072;-79
2021/10/30 12:33:12;;;;;;;6.72;6.05;;;12.70;99.90;;;;;;4713773;30;20045;-83
2021/10/30 12:35:45;;;;;;;6.63;6.03;;;12.90;99.90;;;;;;4714118;30;20064;-82
2021/10/30 12:38:21;;;;;;;6.63;5.28;;;13.00;99.90;;;;;;4712507;30;20060;-83
2021/10/30 12:40:52;;;;;;;5.93;5.32;;;13.20;99.90;;;;;;4711598;30;20473;-83
2021/10/30 12:43:20;;;;;;;6.57;5.40;;;13.30;99.90;;;;;;4714249;30;20255;-83
2021/10/30 12:45:51;;;;;;;5.95;5.32;;;13.50;99.90;;;;;;4710169;30;20066;-84
2021/10/30 12:48:21;;;;;;;6.55;5.75;;;13.60;99.90;;;;;;4714191;30;20053;-82
2021/10/30 12:51:04;;;;;;;5.88;4.95;;;13.80;99.90;;;;;;4712860;30;20382;-83
2021/10/30 12:53:34;;;;;;;5.25;4.18;;;13.80;99.90;;;;;;4712270;30;20373;-83
2021/10/30 12:56:12;;;;;;;5.13;4.72;;;13.80;99.90;;;;;;4712316;30;20061;-83
2021/10/30 12:58:44;;;;;;;5.40;4.88;;;13.80;99.90;;;;;;4713676;30;20060;-83
2021/10/30 13:01:17;;;;;;;6.85;5.20;;;13.80;99.90;;;;;;4710096;30;20052;-83
2021/10/30 13:04:10;;;;;;;4.20;3.80;;;13.70;99.90;;;;;;4713939;30;20057;-83
2021/10/30 13:06:41;;;;;;;5.15;4.65;;;13.30;99.90;;;;;;4729038;30;20061;-83
2021/10/30 13:09:10;;;;;;;4.78;4.28;;;13.00;99.90;;;;;;4733029;30;20044;-83
2021/10/30 13:11:39;;;;;;;5.70;4.70;;;13.00;99.90;;;;;;4734042;30;20056;-83
2021/10/30 13:14:06;;;;;;;6.95;6.30;;;13.10;99.90;;;;;;4718002;30;20083;-83
2021/10/30 13:16:35;;;;;;;4.68;4.28;;;13.20;99.90;;;;;;4733679;30;20060;-83
2021/10/30 13:19:03;;;;;;;5.10;4.35;;;13.30;99.90;;;;;;4734630;30;20061;-84
2021/10/30 13:21:31;;;;;;;4.57;4.18;;;13.40;99.90;;;;;;4733680;30;20056;-84
2021/10/30 13:24:00;;;;;;;4.65;3.47;;;13.20;99.90;;;;;;4733538;30;20087;-83
2021/10/30 13:26:29;;;;;;;5.07;4.20;;;13.40;99.90;;;;;;4719505;30;20052;-84
2021/10/30 13:28:58;;;;;;;3.50;3.20;;;13.70;99.90;;;;;;4716799;30;20045;-83
2021/10/30 13:31:29;;;;;;;8.05;3.78;;;13.90;99.90;;;;;;4713415;30;20053;-83
2021/10/30 13:33:56;;;;;;;4.07;2.83;;;13.80;99.90;;;;;;4715489;30;20091;-84
2021/10/30 13:36:27;;;;;;;5.07;3.63;;;13.90;99.90;;;;;;4715835;30;20064;-83
2021/10/30 13:38:55;;;;;;;3.58;3.28;;;13.90;99.90;;;;;;4715549;30;20053;-83
2021/10/30 13:41:26;;;;;;;8.10;6.63;;;13.80;99.90;;;;;;4715707;30;20405;-85
2021/10/30 13:43:56;;;;;;;11.38;8.80;;;13.80;99.90;;;;;;4715438;30;20524;-84
2021/10/30 13:46:25;;;;;;;9.63;8.70;;;13.70;99.90;;;;;;4714468;30;20512;-84
2021/10/30 13:48:54;;;;;;;10.43;9.32;;;13.50;99.90;;;;;;4714749;30;20064;-84
2021/10/30 13:51:24;;;;;;;18.23;11.55;;;13.30;99.90;;;;;;4716113;30;20147;-84
2021/10/30 13:53:54;;;;;;;16.35;12.85;;;13.10;99.90;;;;;;4715129;30;20049;-84
2021/10/30 13:56:22;;;;;;;15.90;11.63;;;13.00;99.90;;;;;;4716550;30;20054;-83
2021/10/30 13:58:50;;;;;;;26.23;14.07;;;12.60;99.90;;;;;;4715179;30;20052;-84
2021/10/30 14:01:20;;;;;;;18.05;12.73;;;12.30;99.90;;;;;;4712150;30;20055;-84
2021/10/30 14:03:49;;;;;;;20.02;14.13;;;12.00;99.90;;;;;;4715654;30;20420;-82
2021/10/30 14:06:18;;;;;;;17.90;14.15;;;11.70;99.90;;;;;;4733683;30;20052;-81
2021/10/30 14:08:47;;;;;;;22.55;15.50;;;11.40;99.90;;;;;;4733598;30;20479;-81
2021/10/30 14:11:15;;;;;;;21.30;13.45;;;11.10;99.90;;;;;;4717235;30;20064;-81
2021/10/30 14:13:43;;;;;;;21.73;15.90;;;11.00;99.90;;;;;;4730326;30;20076;-81
2021/10/30 14:16:12;;;;;;;22.80;16.33;;;10.80;99.90;;;;;;4714491;30;20068;-80
2021/10/30 14:18:45;;;;;;;25.00;15.15;;;10.70;99.90;;;;;;4714450;30;20512;-80
2021/10/30 14:21:13;;;;;;;21.48;15.90;;;10.60;99.90;;;;;;4715446;30;20053;-81
2021/10/30 14:23:41;;;;;;;29.73;17.33;;;10.50;99.90;;;;;;4700582;30;20053;-81
2021/10/30 14:26:11;;;;;;;29.00;15.55;;;10.50;99.90;;;;;;4713772;30;20057;-82
2021/10/30 14:28:39;;;;;;;20.85;13.38;;;10.50;99.90;;;;;;4716119;30;20060;-81
2021/10/30 14:31:07;;;;;;;19.15;13.90;;;10.50;99.90;;;;;;4713276;30;20060;-82
2021/10/30 14:33:35;;;;;;;24.88;16.20;;;10.50;99.90;;;;;;4715902;30;20049;-81
2021/10/30 14:36:03;;;;;;;25.38;18.70;;;10.50;99.90;;;;;;4716072;30;20377;-81
2021/10/30 14:38:33;;;;;;;27.00;14.68;;;10.50;99.90;;;;;;4714599;30;20535;-81
2021/10/30 14:41:01;;;;;;;21.10;16.05;;;10.40;99.90;;;;;;4714529;30;20552;-81
2021/10/30 14:43:30;;;;;;;23.98;14.80;;;10.40;99.90;;;;;;4715911;30;20410;-82
2021/10/30 14:45:58;;;;;;;22.48;15.02;;;10.30;99.90;;;;;;4713331;30;20060;-82
2021/10/30 14:48:26;;;;;;;17.85;13.05;;;10.20;99.90;;;;;;4715767;30;20068;-81
2021/10/30 14:50:54;;;;;;;20.63;15.10;;;10.20;99.90;;;;;;4713662;30;20060;-81
2021/10/30 14:53:21;;;;;;;21.50;15.50;;;10.10;99.90;;;;;;4715154;30;20045;-82
2021/10/30 14:55:49;;;;;;;17.98;15.05;;;10.10;99.90;;;;;;4715486;30;20056;-82
2021/10/30 14:58:17;;;;;;;20.58;13.05;;;10.10;99.90;;;;;;4714158;30;20049;-81
2021/10/30 15:00:45;;;;;;;21.27;15.30;;;10.10;99.90;;;;;;4711707;30;20061;-81
2021/10/30 15:03:13;;;;;;;18.70;14.23;;;10.00;99.90;;;;;;4714381;30;20416;-81
2021/10/30 15:05:41;;;;;;;27.23;15.45;;;10.00;99.90;;;;;;4729065;30;20052;-81
2021/10/30 15:08:09;;;;;;;16.90;13.23;;;9.90;99.90;;;;;;4733117;30;20064;-81
2021/10/30 15:10:37;;;;;;;19.50;13.95;;;9.90;99.90;;;;;;4731776;30;20052;-81
2021/10/30 15:13:04;;;;;;;21.55;14.85;;;9.80;99.90;;;;;;4732743;30;20049;-81
2021/10/30 15:15:32;;;;;;;14.68;10.32;;;9.80;99.90;;;;;;4729962;30;20061;-81
2021/10/30 15:18:04;;;;;;;23.08;13.32;;;9.80;99.90;;;;;;4732547;30;20053;-81
2021/10/30 15:20:33;;;;;;;19.23;14.27;;;9.80;99.90;;;;;;4731647;30;20410;-80
2021/10/30 15:23:02;;;;;;;19.10;15.60;;;9.70;99.90;;;;;;4732468;30;20056;-80
2021/10/30 15:25:30;;;;;;;21.27;12.75;;;9.60;99.90;;;;;;4724428;30;20049;-82
2021/10/30 15:27:58;;;;;;;26.20;15.70;;;9.60;99.90;;;;;;4698958;30;20065;-81
2021/10/30 15:30:26;;;;;;;21.35;16.35;;;9.50;99.90;;;;;;4711856;30;20056;-80
2021/10/30 15:32:55;;;;;;;17.40;12.98;;;9.50;99.90;;;;;;4698776;30;20057;-80
2021/10/30 15:35:23;;;;;;;18.15;13.27;;;9.40;99.90;;;;;;4715491;30;20060;-80
2021/10/30 15:37:50;;;;;;;18.27;13.25;;;9.40;99.90;;;;;;4713483;30;20084;-80
2021/10/30 15:40:18;;;;;;;30.05;14.07;;;9.30;99.90;;;;;;4713012;30;20061;-80
2021/10/30 15:42:46;;;;;;;19.10;13.98;;;9.30;99.90;;;;;;4714631;30;20057;-80
2021/10/30 15:45:17;;;;;;;18.80;13.82;;;9.30;99.90;;;;;;4712818;30;20052;-81
2021/10/30 15:47:48;;;;;;;21.42;12.65;;;9.30;99.90;;;;;;4699024;30;20061;-82
2021/10/30 15:50:17;;;;;;;22.42;14.73;;;9.20;99.90;;;;;;4714071;30;20420;-82
2021/10/30 15:52:45;;;;;;;20.85;15.32;;;9.30;99.90;;;;;;4698933;30;20090;-81
2021/10/30 15:55:12;;;;;;;23.38;14.02;;;9.20;99.90;;;;;;4714588;30;20442;-82
2021/10/30 15:57:40;;;;;;;16.75;12.95;;;9.20;99.90;;;;;;4714320;30;20049;-82
2021/10/30 16:00:09;;;;;;;21.90;14.10;;;9.10;99.90;;;;;;4711438;30;20068;-80
2021/10/30 16:02:37;;;;;;;17.77;12.13;;;9.00;99.90;;;;;;4712920;30;20056;-81
2021/10/30 16:05:12;;;;;;;21.95;14.60;;;9.00;99.90;;;;;;4723139;30;20432;-81
2021/10/30 16:07:40;;;;;;;20.63;14.57;;;9.00;99.90;;;;;;4730775;30;20056;-81
2021/10/30 16:10:08;;;;;;;17.60;13.27;;;8.90;99.90;;;;;;4730863;30;20518;-81
2021/10/30 16:12:36;;;;;;;19.42;13.05;;;8.90;99.90;;;;;;4730725;30;20052;-81
2021/10/30 16:15:06;;;;;;;16.45;11.85;;;9.00;99.90;;;;;;4717543;30;20050;-81
2021/10/30 16:17:35;;;;;;;22.80;15.07;;;9.00;99.90;;;;;;4713785;30;20056;-81
2021/10/30 16:20:06;;;;;;;18.15;11.20;;;9.00;99.90;;;;;;4713826;30;20067;-81
2021/10/30 16:22:35;;;;;;;18.40;14.18;;;9.00;99.90;;;;;;4698232;30;20394;-81
2021/10/30 16:25:04;;;;;;;17.77;12.13;;;9.00;99.90;;;;;;4712127;30;20064;-81
2021/10/30 16:27:32;;;;;;;21.70;13.68;;;9.10;99.90;;;;;;4713093;30;20053;-81
2021/10/30 16:30:00;;;;;;;18.10;12.63;;;9.00;99.90;;;;;;4712381;30;20057;-81
2021/10/30 16:32:33;;;;;;;19.10;11.48;;;8.90;99.90;;;;;;4713958;30;20053;-81
2021/10/30 16:35:01;;;;;;;17.90;12.70;;;8.80;99.90;;;;;;4713937;30;20138;-81
2021/10/30 16:37:29;;;;;;;23.75;15.32;;;9.00;99.90;;;;;;4712428;30;20079;-81
2021/10/30 16:39:57;;;;;;;17.42;12.20;;;8.80;99.90;;;;;;4713661;30;20049;-81
2021/10/30 16:42:25;;;;;;;17.98;12.60;;;8.70;99.90;;;;;;4713332;30;20079;-81
2021/10/30 16:44:53;;;;;;;19.80;13.20;;;8.80;99.90;;;;;;4713242;30;20424;-81
2021/10/30 16:47:20;;;;;;;16.13;11.23;;;8.80;99.90;;;;;;4712487;30;20411;-81
2021/10/30 16:49:52;;;;;;;16.77;12.82;;;8.80;99.90;;;;;;4712202;30;20053;-81
2021/10/30 16:52:19;;;;;;;;;;;8.80;99.90;;;;;;4713514;30;20404;-80
2021/10/30 16:54:48;;;;;;;13.98;9.40;;;8.80;99.90;;;;;;4713596;30;19937;-81
2021/10/30 16:57:15;;;;;;;17.67;10.80;;;8.80;99.90;;;;;;4713479;30;20049;-81
2021/10/30 16:59:43;;;;;;;16.17;11.70;;;8.60;99.90;;;;;;4713428;30;20053;-81
2021/10/30 17:02:12;;;;;;;11.73;9.07;;;8.70;99.90;;;;;;4712044;30;20068;-81
2021/10/30 17:04:40;;;;;;;14.85;9.82;;;8.70;99.90;;;;;;4720147;30;20063;-81
2021/10/30 17:07:08;;;;;;;15.88;9.27;;;8.80;99.90;;;;;;4714246;30;20061;-80
2021/10/30 17:09:36;;;;;;;12.27;8.80;;;8.80;99.90;;;;;;4713305;30;20045;-80
2021/10/30 17:12:04;;;;;;;16.63;9.23;;;8.80;99.90;;;;;;4697277;30;20060;-81
2021/10/30 17:14:31;;;;;;;14.48;9.40;;;8.70;99.90;;;;;;4697580;30;20053;-81
2021/10/30 17:16:59;;;;;;;11.63;8.93;;;8.70;99.90;;;;;;4711944;30;20057;-82
2021/10/30 17:19:27;;;;;;;11.25;8.05;;;8.70;99.90;;;;;;4712731;30;20419;-81
2021/10/30 17:21:55;;;;;;;17.05;9.32;;;8.70;99.90;;;;;;4712731;30;20057;-81
2021/10/30 17:24:23;;;;;;;15.52;11.80;;;8.70;99.90;;;;;;4712307;30;20064;-81
2021/10/30 17:26:51;;;;;;;16.45;11.43;;;8.80;99.90;;;;;;4709318;30;20061;-81
2021/10/30 17:29:18;;;;;;;15.55;11.27;;;8.70;99.90;;;;;;4711560;30;20696;-81
2021/10/30 17:31:46;;;;;;;16.77;13.18;;;8.70;99.90;;;;;;4710504;30;20057;-81
2021/10/30 17:34:14;;;;;;;16.90;11.63;;;8.80;99.90;;;;;;4713323;30;20060;-81
2021/10/30 17:36:41;;;;;;;20.83;14.43;;;8.80;99.90;;;;;;4712275;30;20496;-81
2021/10/30 17:39:09;;;;;;;13.23;11.45;;;8.80;99.90;;;;;;4713115;30;20080;-81
2021/10/30 17:41:37;;;;;;;16.80;12.05;;;8.70;99.90;;;;;;4711292;30;20057;-81
2021/10/30 17:44:05;;;;;;;15.60;12.18;;;8.70;99.90;;;;;;4711682;30;20072;-82